10liff — V2CH5 — position and weather

sailwx.info

Track history (hours):
 
Tides and Currents Weather Stations Pressure Air Temp Water Temp Dewpoint Dewpoint Depression Visibility Wind Speed Wind Dir Waves Ship Positions

10liff

Last reported at 2018-Jun-24 03:59 UTC. Time now 2018-Jun-24 12:32 UTC.
Position N 24°24' E 118°50'.

Length 143 m; draft 6 m.

Type: Ship. MMSI: 304939206.

Date/timePositionNaut miles runAvg speedWind from/ knotsBaromVisibWave heightAir tempDewpointWater temp
2018-Jun-24 03:59N 24°24' E 118°50'816.3
2018-Jun-24 03:30N 24°18' E 118°45'816.3
2018-Jun-24 03:00N 24°12' E 118°39'816.1
2018-Jun-24 02:30N 24°08' E 118°31'816.3
2018-Jun-24 02:00N 24°02' E 118°25'816.2
2018-Jun-24 01:29N 23°56' E 118°18'816.2
2018-Jun-24 00:59N 23°51' E 118°12'816.0
2018-Jun-24 00:30N 23°46' E 118°05'816.7
2018-Jun-24 00:00N 23°41' E 117°58'917.2
2018-Jun-23 23:30N 23°35' E 117°51'917.7
2018-Jun-23 23:00N 23°29' E 117°44'917.7
2018-Jun-23 22:30N 23°24' E 117°36'1018.3
2018-Jun-23 21:58N 23°17' E 117°28'918.4
2018-Jun-23 21:28N 23°11' E 117°20'185 8.2
2018-Jun-22 23:04N 22°20' E 114°08'0 0.9
2018-Jun-22 22:58N 22°20' E 114°08'178 7.0
2018-Jun-21 21:31N 20°34' E 111°34'117.5
2018-Jun-21 21:27N 20°33' E 111°33'817.3
2018-Jun-21 20:58N 20°29' E 111°26'917.5
2018-Jun-21 20:27N 20°24' E 111°17'817.3
2018-Jun-21 20:00N 20°20' E 111°11'917.5
2018-Jun-21 19:29N 20°16' E 111°02'714.8
2018-Jun-21 19:00N 20°15' E 110°54'713.2
2018-Jun-21 18:28N 20°14' E 110°47'613.5
2018-Jun-21 18:00N 20°14' E 110°40'1013.6
2018-Jun-21 17:17N 20°14' E 110°30'413.7
2018-Jun-21 17:01N 20°12' E 110°26'  
2018-Jun-19 02:43N 20°14' E 110°40'311.3
2018-Jun-19 02:25N 20°14' E 110°44'4 8.7
2018-Jun-19 01:59N 20°14' E 110°48'510.1
2018-Jun-19 01:29N 20°15' E 110°53'611.6
2018-Jun-19 01:00N 20°15' E 110°59'612.5
2018-Jun-19 00:30N 20°17' E 111°05'714.5
2018-Jun-19 00:00N 20°21' E 111°12'714.0
2018-Jun-18 23:30N 20°24' E 111°19'714.0
2018-Jun-18 23:00N 20°28' E 111°25'713.9
2018-Jun-18 22:30N 20°32' E 111°31'713.5
2018-Jun-18 21:58N 20°36' E 111°38'  
2018-Jun-15 18:27N 22°32' E 119°45'614.4
2018-Jun-15 18:00N 22°32' E 119°51'714.8
2018-Jun-15 17:30N 22°33' E 119°59'815.2
2018-Jun-15 17:01N 22°33' E 120°08'814.8
2018-Jun-15 16:30N 22°33' E 120°16'3 6.6
2018-Jun-15 16:00N 22°33' E 120°19'0 0.1
2018-Jun-15 15:28N 22°34' E 120°19'0 0.0
2018-Jun-15 14:10N 22°34' E 120°19'0 0.0
2018-Jun-15 13:52N 22°34' E 120°19'0 0.0
2018-Jun-15 13:28N 22°34' E 120°19'0 0.0
2018-Jun-15 12:58N 22°34' E 120°19'0 0.0
2018-Jun-15 12:28N 22°34' E 120°19'0 0.0
2018-Jun-15 11:58N 22°34' E 120°19'0 0.0
2018-Jun-15 11:28N 22°34' E 120°19'0 0.0
2018-Jun-15 10:52N 22°34' E 120°19'0 0.0
2018-Jun-15 10:28N 22°34' E 120°19'0 0.0
2018-Jun-15 09:58N 22°34' E 120°19'0 0.0
2018-Jun-15 09:22N 22°34' E 120°19'0 0.0
2018-Jun-15 08:52N 22°34' E 120°19'0 0.0
2018-Jun-15 08:28N 22°34' E 120°19'0 0.3
2018-Jun-15 07:58N 22°33' E 120°19'4 7.5
2018-Jun-15 07:30N 22°32' E 120°15'2 5.0
2018-Jun-15 07:00N 22°32' E 120°13'1 1.1
2018-Jun-15 06:29N 22°32' E 120°12'0 0.6
2018-Jun-15 06:00N 22°32' E 120°12'1 1.3
2018-Jun-15 05:30N 22°32' E 120°12'3 6.5
2018-Jun-15 05:00N 22°31' E 120°09'714.0
2018-Jun-15 04:30N 22°30' E 120°01'612.4
2018-Jun-15 04:00N 22°29' E 119°54'511.2
2018-Jun-15 03:30N 22°35' E 119°55'714.2
2018-Jun-15 03:00N 22°42' E 119°54'714.1
2018-Jun-15 02:30N 22°49' E 119°54'713.8
2018-Jun-15 02:00N 22°56' E 119°53'2 1.3
2018-Jun-15 00:28N 22°57' E 119°51'6 0.5
2018-Jun-14 12:50N 22°55' E 119°57'514.1
2018-Jun-14 12:30N 22°51' E 119°60'713.9
2018-Jun-14 12:00N 22°45' E 120°03'713.9
2018-Jun-14 11:30N 22°38' E 120°06'510.5
2018-Jun-14 11:00N 22°34' E 120°09'611.9
2018-Jun-14 10:30N 22°39' E 120°07'612.5
2018-Jun-14 10:00N 22°45' E 120°03'612.3
2018-Jun-14 09:30N 22°50' E 119°60'  
Track history (hours):
 
Tides and Currents Weather Stations Pressure Air Temp Water Temp Dewpoint Dewpoint Depression Visibility Wind Speed Wind Dir Waves Ship Positions

10liff

Last reported at 2018-Jun-24 03:59 UTC. Time now 2018-Jun-24 12:32 UTC.
Position N 24°24' E 118°50'.

Length 143 m; draft 6 m.

Type: Ship. MMSI: 304939206.

Date/timePositionNaut miles runAvg speedWind from/ knotsBaromVisibWave heightAir tempDewpointWater temp
2018-Jun-24 03:59N 24°24' E 118°50'816.3
2018-Jun-24 03:30N 24°18' E 118°45'816.3
2018-Jun-24 03:00N 24°12' E 118°39'816.1
2018-Jun-24 02:30N 24°08' E 118°31'816.3
2018-Jun-24 02:00N 24°02' E 118°25'816.2
2018-Jun-24 01:29N 23°56' E 118°18'816.2
2018-Jun-24 00:59N 23°51' E 118°12'816.0
2018-Jun-24 00:30N 23°46' E 118°05'816.7
2018-Jun-24 00:00N 23°41' E 117°58'917.2
2018-Jun-23 23:30N 23°35' E 117°51'917.7
2018-Jun-23 23:00N 23°29' E 117°44'917.7
2018-Jun-23 22:30N 23°24' E 117°36'1018.3
2018-Jun-23 21:58N 23°17' E 117°28'918.4
2018-Jun-23 21:28N 23°11' E 117°20'185 8.2
2018-Jun-22 23:04N 22°20' E 114°08'0 0.9
2018-Jun-22 22:58N 22°20' E 114°08'178 7.0
2018-Jun-21 21:31N 20°34' E 111°34'117.5
2018-Jun-21 21:27N 20°33' E 111°33'817.3
2018-Jun-21 20:58N 20°29' E 111°26'917.5
2018-Jun-21 20:27N 20°24' E 111°17'817.3
2018-Jun-21 20:00N 20°20' E 111°11'917.5
2018-Jun-21 19:29N 20°16' E 111°02'714.8
2018-Jun-21 19:00N 20°15' E 110°54'713.2
2018-Jun-21 18:28N 20°14' E 110°47'613.5
2018-Jun-21 18:00N 20°14' E 110°40'1013.6
2018-Jun-21 17:17N 20°14' E 110°30'413.7
2018-Jun-21 17:01N 20°12' E 110°26'  
2018-Jun-19 02:43N 20°14' E 110°40'311.3
2018-Jun-19 02:25N 20°14' E 110°44'4 8.7
2018-Jun-19 01:59N 20°14' E 110°48'510.1
2018-Jun-19 01:29N 20°15' E 110°53'611.6
2018-Jun-19 01:00N 20°15' E 110°59'612.5
2018-Jun-19 00:30N 20°17' E 111°05'714.5
2018-Jun-19 00:00N 20°21' E 111°12'714.0
2018-Jun-18 23:30N 20°24' E 111°19'714.0
2018-Jun-18 23:00N 20°28' E 111°25'713.9
2018-Jun-18 22:30N 20°32' E 111°31'713.5
2018-Jun-18 21:58N 20°36' E 111°38'  
2018-Jun-15 18:27N 22°32' E 119°45'614.4
2018-Jun-15 18:00N 22°32' E 119°51'714.8
2018-Jun-15 17:30N 22°33' E 119°59'815.2
2018-Jun-15 17:01N 22°33' E 120°08'814.8
2018-Jun-15 16:30N 22°33' E 120°16'3 6.6
2018-Jun-15 16:00N 22°33' E 120°19'0 0.1
2018-Jun-15 15:28N 22°34' E 120°19'0 0.0
2018-Jun-15 14:10N 22°34' E 120°19'0 0.0
2018-Jun-15 13:52N 22°34' E 120°19'0 0.0
2018-Jun-15 13:28N 22°34' E 120°19'0 0.0
2018-Jun-15 12:58N 22°34' E 120°19'0 0.0
2018-Jun-15 12:28N 22°34' E 120°19'0 0.0
2018-Jun-15 11:58N 22°34' E 120°19'0 0.0
2018-Jun-15 11:28N 22°34' E 120°19'0 0.0
2018-Jun-15 10:52N 22°34' E 120°19'0 0.0
2018-Jun-15 10:28N 22°34' E 120°19'0 0.0
2018-Jun-15 09:58N 22°34' E 120°19'0 0.0
2018-Jun-15 09:22N 22°34' E 120°19'0 0.0
2018-Jun-15 08:52N 22°34' E 120°19'0 0.0
2018-Jun-15 08:28N 22°34' E 120°19'0 0.3
2018-Jun-15 07:58N 22°33' E 120°19'4 7.5
2018-Jun-15 07:30N 22°32' E 120°15'2 5.0
2018-Jun-15 07:00N 22°32' E 120°13'1 1.1
2018-Jun-15 06:29N 22°32' E 120°12'0 0.6
2018-Jun-15 06:00N 22°32' E 120°12'1 1.3
2018-Jun-15 05:30N 22°32' E 120°12'3 6.5
2018-Jun-15 05:00N 22°31' E 120°09'714.0
2018-Jun-15 04:30N 22°30' E 120°01'612.4
2018-Jun-15 04:00N 22°29' E 119°54'511.2
2018-Jun-15 03:30N 22°35' E 119°55'714.2
2018-Jun-15 03:00N 22°42' E 119°54'714.1
2018-Jun-15 02:30N 22°49' E 119°54'713.8
2018-Jun-15 02:00N 22°56' E 119°53'2 1.3
2018-Jun-15 00:28N 22°57' E 119°51'6 0.5
2018-Jun-14 12:50N 22°55' E 119°57'514.1
2018-Jun-14 12:30N 22°51' E 119°60'713.9
2018-Jun-14 12:00N 22°45' E 120°03'713.9
2018-Jun-14 11:30N 22°38' E 120°06'510.5
2018-Jun-14 11:00N 22°34' E 120°09'611.9
2018-Jun-14 10:30N 22°39' E 120°07'612.5
2018-Jun-14 10:00N 22°45' E 120°03'612.3
2018-Jun-14 09:30N 22°50' E 119°60'  

Dump ship's entire track history